createdAt,value
2022-09-09T00:01:31.528Z,13.91
2022-09-09T00:04:05.219Z,13.78
2022-09-09T00:06:36.357Z,13.76
2022-09-09T00:09:12.515Z,13.72
2022-09-09T00:11:44.832Z,13.68
2022-09-09T00:14:20.354Z,13.61
2022-09-09T00:16:54.031Z,13.54
2022-09-09T00:19:26.385Z,13.44
2022-09-09T00:22:03.912Z,13.33
2022-09-09T00:24:45.992Z,13.25
2022-09-09T00:27:24.629Z,13.26
2022-09-09T00:29:55.839Z,13.28
2022-09-09T00:32:24.664Z,13.27
2022-09-09T00:34:58.115Z,13.23
2022-09-09T00:37:27.434Z,13.21
2022-09-09T00:40:01.817Z,13.18
2022-09-09T00:42:40.109Z,13.16
2022-09-09T00:45:26.784Z,13.20
2022-09-09T00:47:57.284Z,13.33
2022-09-09T00:50:39.565Z,13.44
2022-09-09T00:53:23.545Z,13.50
2022-09-09T00:56:01.085Z,13.52
2022-09-09T00:58:29.274Z,13.52
2022-09-09T01:01:03.696Z,13.52
2022-09-09T01:03:36.833Z,13.51
2022-09-09T01:06:14.211Z,13.43
2022-09-09T01:09:00.545Z,13.38
2022-09-09T01:11:39.238Z,13.33
2022-09-09T01:14:24.797Z,13.29
2022-09-09T01:16:56.777Z,13.28
2022-09-09T01:19:41.647Z,13.26
2022-09-09T01:22:18.958Z,13.25
2022-09-09T01:24:57.110Z,13.24
2022-09-09T01:27:27.095Z,13.27
2022-09-09T01:29:55.254Z,13.28
2022-09-09T01:32:43.252Z,13.26
2022-09-09T01:35:17.003Z,13.23
2022-09-09T01:37:44.674Z,13.24
2022-09-09T01:40:12.344Z,13.28
2022-09-09T01:42:41.410Z,13.32
2022-09-09T01:45:10.281Z,13.36
2022-09-09T01:47:38.111Z,13.40
2022-09-09T01:50:06.974Z,13.40
2022-09-09T01:52:40.284Z,13.37
2022-09-09T01:55:10.783Z,13.35
2022-09-09T01:57:46.515Z,13.33
2022-09-09T02:00:16.440Z,13.24
2022-09-09T02:02:55.127Z,13.15
2022-09-09T02:05:31.811Z,13.06
2022-09-09T02:08:05.003Z,12.99
2022-09-09T02:10:38.653Z,12.93
2022-09-09T02:13:12.889Z,12.90
2022-09-09T02:15:47.282Z,12.86
2022-09-09T02:18:17.126Z,12.81
2022-09-09T02:20:46.920Z,12.78
2022-09-09T02:23:16.979Z,12.75
2022-09-09T02:25:47.270Z,12.74
2022-09-09T02:28:18.784Z,12.73
2022-09-09T02:30:48.957Z,12.69
2022-09-09T02:33:17.047Z,12.66
2022-09-09T02:35:47.345Z,12.63
2022-09-09T02:38:17.646Z,12.62
2022-09-09T02:40:46.407Z,12.62
2022-09-09T02:43:18.545Z,12.61
2022-09-09T02:45:53.835Z,12.62
2022-09-09T02:48:29.542Z,12.61
2022-09-09T02:50:59.991Z,12.61
2022-09-09T02:53:36.815Z,12.59
2022-09-09T02:56:07.864Z,12.60
2022-09-09T02:58:38.564Z,12.58
2022-09-09T03:01:06.535Z,12.57
2022-09-09T03:03:35.058Z,12.57
2022-09-09T03:06:02.880Z,12.55
2022-09-09T03:08:30.519Z,12.58
2022-09-09T03:11:02.319Z,12.59
2022-09-09T03:13:30.353Z,12.61
2022-09-09T03:15:59.812Z,12.60
2022-09-09T03:18:29.152Z,12.60
2022-09-09T03:20:56.905Z,12.60
2022-09-09T03:23:25.225Z,12.55
2022-09-09T03:25:53.162Z,12.51
2022-09-09T03:28:21.631Z,12.43
2022-09-09T03:30:49.392Z,12.38
2022-09-09T03:33:18.921Z,12.32
2022-09-09T03:35:49.721Z,12.26
2022-09-09T03:38:17.457Z,12.21
2022-09-09T03:40:51.234Z,12.13
2022-09-09T03:43:19.375Z,12.06
2022-09-09T03:45:48.374Z,12.00
2022-09-09T03:48:16.533Z,11.99
2022-09-09T03:50:50.074Z,11.97
2022-09-09T03:53:20.120Z,11.96
2022-09-09T03:55:47.900Z,12.00
2022-09-09T03:58:16.526Z,12.04
2022-09-09T04:00:47.715Z,12.06
2022-09-09T04:03:16.561Z,12.09
2022-09-09T04:05:44.249Z,12.10
2022-09-09T04:08:13.443Z,12.12
2022-09-09T04:10:41.105Z,12.13
2022-09-09T04:13:08.747Z,12.13
2022-09-09T04:15:37.587Z,12.15
2022-09-09T04:18:08.908Z,12.13
2022-09-09T04:23:31.262Z,12.13
2022-09-09T04:26:00.725Z,12.08
2022-09-09T04:28:30.913Z,12.03
2022-09-09T04:30:58.953Z,11.96
2022-09-09T04:33:30.866Z,11.92
2022-09-09T04:35:58.541Z,11.91
2022-09-09T04:38:33.937Z,11.87
2022-09-09T04:41:03.099Z,11.80
2022-09-09T04:43:31.771Z,11.77
2022-09-09T04:46:00.251Z,11.70
2022-09-09T04:48:28.425Z,11.67
2022-09-09T04:50:58.203Z,11.61
2022-09-09T04:53:26.523Z,11.61
2022-09-09T04:55:56.938Z,11.61
2022-09-09T04:58:26.060Z,11.62
2022-09-09T05:00:53.759Z,11.69
2022-09-09T05:03:21.465Z,11.75
2022-09-09T05:05:49.233Z,11.78
2022-09-09T05:08:16.984Z,11.77
2022-09-09T05:10:44.972Z,11.80
2022-09-09T05:13:12.632Z,11.90
2022-09-09T05:15:41.877Z,11.98
2022-09-09T05:18:09.744Z,12.05
2022-09-09T05:20:37.510Z,12.09
2022-09-09T05:23:05.196Z,12.11
2022-09-09T05:25:32.904Z,12.08
2022-09-09T05:28:00.667Z,12.12
2022-09-09T05:30:28.329Z,12.12
2022-09-09T05:32:59.250Z,12.20
2022-09-09T05:35:26.985Z,12.25
2022-09-09T05:37:54.648Z,12.33
2022-09-09T05:40:22.868Z,12.39
2022-09-09T05:42:54.500Z,12.46
2022-09-09T05:45:22.168Z,12.53
2022-09-09T05:47:54.853Z,12.57
2022-09-09T05:50:23.943Z,12.59
2022-09-09T05:52:51.641Z,12.63
2022-09-09T05:55:19.341Z,12.72
2022-09-09T05:57:50.817Z,12.79
2022-09-09T06:00:18.906Z,12.88
2022-09-09T06:02:53.448Z,12.95
2022-09-09T06:05:23.776Z,13.08
2022-09-09T06:07:55.965Z,13.23
2022-09-09T06:10:24.270Z,13.36
2022-09-09T06:12:55.356Z,13.54
2022-09-09T06:15:23.083Z,13.68
2022-09-09T06:17:56.449Z,13.82
2022-09-09T06:20:24.208Z,13.92
2022-09-09T06:22:51.915Z,13.99
2022-09-09T06:25:20.966Z,14.08
2022-09-09T06:27:51.706Z,14.14
2022-09-09T06:30:19.397Z,14.21
2022-09-09T06:32:47.441Z,14.27
2022-09-09T06:35:15.349Z,14.35
2022-09-09T06:37:47.169Z,14.41
2022-09-09T06:40:14.938Z,14.46
2022-09-09T06:42:44.329Z,14.51
2022-09-09T06:45:13.057Z,14.57
2022-09-09T06:47:40.781Z,14.66
2022-09-09T06:50:09.370Z,14.77
2022-09-09T06:52:37.094Z,14.85
2022-09-09T06:55:05.838Z,14.93
2022-09-09T06:57:37.471Z,15.03
2022-09-09T07:00:08.662Z,15.12
2022-09-09T07:02:40.037Z,15.17
2022-09-09T07:05:09.203Z,15.23
2022-09-09T07:07:37.650Z,15.24
2022-09-09T07:10:06.263Z,15.31
2022-09-09T07:12:34.014Z,15.33
2022-09-09T07:15:01.681Z,15.29
2022-09-09T07:17:30.992Z,15.28
2022-09-09T07:19:58.841Z,15.26
2022-09-09T07:22:26.540Z,15.28
2022-09-09T07:24:54.222Z,15.30
2022-09-09T07:27:22.169Z,15.32
2022-09-09T07:29:49.835Z,15.40
2022-09-09T07:32:17.645Z,15.61
2022-09-09T07:34:47.206Z,15.70
2022-09-09T07:37:15.130Z,15.76
2022-09-09T07:39:43.087Z,15.85
2022-09-09T07:42:12.717Z,15.85
2022-09-09T07:44:40.763Z,15.96
2022-09-09T07:47:08.525Z,16.10
2022-09-09T07:49:36.342Z,16.13
2022-09-09T07:54:38.254Z,16.24
2022-09-09T07:57:06.354Z,16.25
2022-09-09T07:59:34.562Z,16.30
2022-09-09T08:02:02.925Z,16.35
2022-09-09T08:04:30.816Z,16.43
2022-09-09T08:07:00.842Z,16.48
2022-09-09T08:09:30.589Z,16.54
2022-09-09T08:11:59.282Z,16.58
2022-09-09T08:14:27.658Z,16.68
2022-09-09T08:16:55.694Z,16.74
2022-09-09T08:19:24.474Z,16.87
2022-09-09T08:21:52.241Z,16.94
2022-09-09T08:24:20.725Z,17.02
2022-09-09T08:26:50.942Z,17.03
2022-09-09T08:29:19.182Z,17.16
2022-09-09T08:31:48.892Z,17.28
2022-09-09T08:34:17.147Z,17.38
2022-09-09T08:36:46.471Z,17.48
2022-09-09T08:39:15.757Z,17.35
2022-09-09T08:42:27.212Z,17.27
2022-09-09T08:45:08.438Z,17.14
2022-09-09T08:47:48.137Z,17.06
2022-09-09T08:50:25.582Z,17.00
2022-09-09T08:53:03.515Z,16.95
2022-09-09T08:55:42.998Z,16.99
2022-09-09T08:58:15.880Z,16.98
2022-09-09T09:01:01.104Z,16.95
2022-09-09T09:03:37.426Z,16.92
2022-09-09T09:06:16.441Z,16.95
2022-09-09T09:08:50.059Z,16.91
2022-09-09T09:11:17.810Z,16.90
2022-09-09T09:13:52.727Z,17.00
2022-09-09T09:16:28.822Z,17.07
2022-09-09T09:18:57.043Z,17.02
2022-09-09T09:21:34.472Z,17.04
2022-09-09T09:24:03.480Z,17.10
2022-09-09T09:26:35.435Z,17.27
2022-09-09T09:29:12.883Z,17.50
2022-09-09T09:31:44.144Z,17.60
2022-09-09T09:34:13.059Z,17.65
2022-09-09T09:36:43.744Z,17.74
2022-09-09T09:42:05.145Z,17.48
2022-09-09T09:44:38.276Z,17.43
2022-09-09T09:47:10.568Z,17.36
2022-09-09T09:49:38.515Z,17.34
2022-09-09T09:52:08.163Z,17.35
2022-09-09T09:54:40.503Z,17.24
2022-09-09T09:57:13.002Z,17.21
2022-09-09T09:59:42.521Z,17.12
2022-09-09T10:02:19.019Z,17.13
2022-09-09T10:04:47.465Z,17.11
2022-09-09T10:07:20.717Z,17.17
2022-09-09T10:09:55.181Z,17.16
2022-09-09T10:12:46.192Z,17.10
2022-09-09T10:15:30.325Z,17.01
2022-09-09T10:18:07.162Z,16.94
2022-09-09T10:20:45.451Z,16.85
2022-09-09T10:23:27.237Z,16.68
2022-09-09T10:26:10.957Z,16.58
2022-09-09T10:28:59.132Z,16.54
2022-09-09T10:31:39.483Z,16.60
2022-09-09T10:34:21.518Z,16.62
2022-09-09T10:36:51.958Z,16.73
2022-09-09T10:39:33.820Z,16.83
2022-09-09T10:42:07.554Z,16.75
2022-09-09T10:45:02.238Z,16.84
2022-09-09T10:47:50.325Z,16.74
2022-09-09T10:53:38.323Z,16.88
2022-09-09T10:56:10.350Z,16.93
2022-09-09T10:58:44.036Z,16.94
2022-09-09T11:01:17.979Z,17.13
2022-09-09T11:03:53.953Z,17.26
2022-09-09T11:06:26.518Z,17.50
2022-09-09T11:08:57.065Z,17.50
2022-09-09T11:11:32.052Z,17.62
2022-09-09T11:14:03.975Z,17.79
2022-09-09T11:16:35.977Z,17.87
2022-09-09T11:19:13.694Z,18.05
2022-09-09T11:21:47.847Z,18.12
2022-09-09T11:24:20.604Z,18.13
2022-09-09T11:26:53.610Z,18.23
2022-09-09T11:29:50.080Z,18.42
2022-09-09T11:32:29.819Z,18.29
2022-09-09T11:35:22.935Z,18.42
2022-09-09T11:38:08.191Z,18.27
2022-09-09T11:40:35.988Z,18.37
2022-09-09T11:43:06.974Z,18.59
2022-09-09T11:45:40.210Z,18.59
2022-09-09T11:48:24.771Z,18.31
2022-09-09T11:51:03.199Z,18.59
2022-09-09T11:53:34.088Z,18.63
2022-09-09T11:56:05.680Z,18.81
2022-09-09T11:58:41.705Z,18.90
2022-09-09T12:01:17.925Z,18.98
2022-09-09T12:03:51.516Z,18.91
2022-09-09T12:06:27.805Z,19.10
2022-09-09T12:09:00.878Z,19.46
2022-09-09T12:11:29.643Z,19.66
2022-09-09T12:14:01.742Z,19.75
2022-09-09T12:16:35.465Z,19.48
2022-09-09T12:19:09.349Z,19.28
2022-09-09T12:21:44.768Z,19.29
2022-09-09T12:24:15.336Z,19.25
2022-09-09T12:26:49.953Z,19.07
2022-09-09T12:29:30.511Z,19.18
2022-09-09T12:32:06.835Z,19.39
2022-09-09T12:34:40.267Z,19.49
2022-09-09T12:37:20.278Z,19.52
2022-09-09T12:39:53.617Z,19.30
2022-09-09T12:42:22.798Z,19.25
2022-09-09T12:44:55.048Z,19.25
2022-09-09T12:47:30.116Z,19.45
2022-09-09T12:50:01.142Z,19.66
2022-09-09T12:52:35.114Z,19.87
2022-09-09T12:55:05.889Z,19.77
2022-09-09T12:57:38.237Z,19.74
2022-09-09T13:00:11.117Z,19.59
2022-09-09T13:02:51.179Z,19.29
2022-09-09T13:05:22.800Z,19.20
2022-09-09T13:07:52.231Z,19.09
2022-09-09T13:10:36.688Z,18.77
2022-09-09T13:13:16.186Z,18.71
2022-09-09T13:15:52.530Z,18.81
2022-09-09T13:18:25.341Z,19.10
2022-09-09T13:20:53.769Z,19.07
2022-09-09T13:23:23.842Z,19.01
2022-09-09T13:25:56.405Z,18.90
2022-09-09T13:28:26.558Z,18.77
2022-09-09T13:31:03.551Z,18.39
2022-09-09T13:33:34.435Z,18.36
2022-09-09T13:36:05.999Z,18.30
2022-09-09T13:38:39.197Z,18.37
2022-09-09T13:41:08.799Z,18.18
2022-09-09T13:43:39.817Z,18.00
2022-09-09T13:46:26.480Z,18.03
2022-09-09T13:48:58.327Z,18.00
2022-09-09T13:51:38.008Z,17.94
2022-09-09T13:54:19.345Z,17.85
2022-09-09T13:56:47.802Z,17.90
2022-09-09T13:59:17.815Z,17.79
2022-09-09T14:01:45.512Z,17.67
2022-09-09T14:04:13.287Z,17.70
2022-09-09T14:06:41.748Z,17.87
2022-09-09T14:09:17.303Z,17.84
2022-09-09T14:11:45.215Z,17.50
2022-09-09T14:14:12.922Z,17.54
2022-09-09T14:16:40.745Z,17.64
2022-09-09T14:19:10.203Z,17.68
2022-09-09T14:21:39.172Z,17.80
2022-09-09T14:24:07.124Z,17.78
2022-09-09T14:26:36.210Z,17.65
2022-09-09T14:29:04.164Z,17.73
2022-09-09T14:31:31.984Z,17.51
2022-09-09T14:33:59.895Z,17.58
2022-09-09T14:36:27.712Z,17.52
2022-09-09T14:38:55.403Z,17.54
2022-09-09T14:41:23.889Z,17.52
2022-09-09T14:43:53.201Z,17.49
2022-09-09T14:46:22.423Z,17.52
2022-09-09T14:48:50.735Z,17.53
2022-09-09T14:51:23.981Z,17.57
2022-09-09T14:53:53.988Z,17.49
2022-09-09T14:56:24.040Z,17.53
2022-09-09T14:58:56.225Z,17.59
2022-09-09T15:01:24.802Z,17.52
2022-09-09T15:03:56.150Z,17.47
2022-09-09T15:06:25.130Z,17.44
2022-09-09T15:08:54.208Z,17.51
2022-09-09T15:11:25.239Z,17.53
2022-09-09T15:13:55.422Z,17.49
2022-09-09T15:16:28.508Z,17.56
2022-09-09T15:18:57.789Z,17.48
2022-09-09T15:21:27.787Z,17.43
2022-09-09T15:23:57.779Z,17.43
2022-09-09T15:26:28.124Z,17.27
2022-09-09T15:29:00.037Z,17.37
2022-09-09T15:31:30.207Z,17.31
2022-09-09T15:34:01.676Z,17.29
2022-09-09T15:36:30.881Z,17.25
2022-09-09T15:38:58.658Z,17.20
2022-09-09T15:41:28.326Z,17.13
2022-09-09T15:43:59.833Z,17.11
2022-09-09T15:46:30.593Z,17.10
2022-09-09T15:49:00.295Z,17.16
2022-09-09T15:51:42.241Z,17.36
2022-09-09T15:54:13.028Z,17.58
2022-09-09T15:56:40.843Z,17.66
2022-09-09T15:59:09.970Z,17.62
2022-09-09T16:01:37.994Z,17.58
2022-09-09T16:04:05.938Z,17.52
2022-09-09T16:06:34.273Z,17.49
2022-09-09T16:09:04.114Z,17.33
2022-09-09T16:11:34.293Z,17.27
2022-09-09T16:14:02.746Z,17.19
2022-09-09T16:16:32.268Z,17.27
2022-09-09T16:19:01.898Z,17.34
2022-09-09T16:21:31.094Z,17.50
2022-09-09T16:24:00.420Z,17.66
2022-09-09T16:26:32.374Z,17.71
2022-09-09T16:29:00.583Z,17.84
2022-09-09T16:31:29.635Z,17.78
2022-09-09T16:33:59.021Z,17.83
2022-09-09T16:36:28.876Z,17.81
2022-09-09T16:38:58.380Z,17.90
2022-09-09T16:41:27.764Z,17.92
2022-09-09T16:43:56.523Z,17.91
2022-09-09T16:46:25.157Z,17.76
2022-09-09T16:48:53.760Z,17.74
2022-09-09T16:51:25.553Z,17.65
2022-09-09T16:53:53.621Z,17.50
2022-09-09T16:56:23.178Z,17.43
2022-09-09T16:58:56.583Z,17.44
2022-09-09T17:01:24.445Z,17.34
2022-09-09T17:04:00.052Z,17.27
2022-09-09T17:06:34.134Z,17.03
2022-09-09T17:09:06.667Z,16.86
2022-09-09T17:11:35.016Z,16.75
2022-09-09T17:14:03.785Z,16.63
2022-09-09T17:16:34.933Z,16.48
2022-09-09T17:19:04.533Z,16.42
2022-09-09T17:21:49.628Z,16.28
2022-09-09T17:24:23.273Z,16.12
2022-09-09T17:26:50.965Z,16.00
2022-09-09T17:29:18.811Z,15.91
2022-09-09T17:31:46.508Z,15.79
2022-09-09T17:34:14.580Z,15.69
2022-09-09T17:36:43.649Z,15.57
2022-09-09T17:39:11.340Z,15.52
2022-09-09T17:41:41.064Z,15.36
2022-09-09T17:44:10.700Z,15.25
2022-09-09T17:46:41.555Z,15.18
2022-09-09T17:49:11.500Z,15.12
2022-09-09T17:51:39.312Z,15.04
2022-09-09T17:54:10.214Z,14.97
2022-09-09T17:56:39.694Z,14.90
2022-09-09T17:59:09.055Z,14.84
2022-09-09T18:01:39.515Z,14.80
2022-09-09T18:04:09.350Z,14.75
2022-09-09T18:06:48.206Z,14.67
2022-09-09T18:09:24.767Z,14.57
2022-09-09T18:11:54.807Z,14.45
2022-09-09T18:14:30.134Z,14.37
2022-09-09T18:16:58.341Z,14.27
2022-09-09T18:19:28.018Z,14.18
2022-09-09T18:21:57.604Z,14.14
2022-09-09T18:24:29.424Z,14.13
2022-09-09T18:26:57.667Z,14.13
2022-09-09T18:29:26.508Z,14.08
2022-09-09T18:31:55.500Z,14.04
2022-09-09T18:34:25.565Z,14.00
2022-09-09T18:36:55.838Z,13.92
2022-09-09T18:39:27.621Z,13.86
2022-09-09T18:41:58.938Z,13.81
2022-09-09T18:44:30.234Z,13.78
2022-09-09T18:47:00.635Z,13.82
2022-09-09T18:49:28.573Z,13.83
2022-09-09T18:51:56.499Z,13.86
2022-09-09T18:54:26.448Z,13.90
2022-09-09T18:56:54.183Z,13.87
2022-09-09T18:59:24.811Z,13.85
2022-09-09T19:01:54.311Z,13.91
2022-09-09T19:04:23.481Z,13.88
2022-09-09T19:06:57.671Z,13.88
2022-09-09T19:09:27.733Z,13.86
2022-09-09T19:11:55.483Z,13.87
2022-09-09T19:14:26.122Z,13.86
2022-09-09T19:16:54.088Z,13.90
2022-09-09T19:19:24.536Z,13.93
2022-09-09T19:21:52.499Z,13.97
2022-09-09T19:24:22.322Z,14.02
2022-09-09T19:26:53.140Z,14.05
2022-09-09T19:29:22.682Z,14.12
2022-09-09T19:32:29.295Z,14.21
2022-09-09T19:34:40.676Z,14.26
2022-09-09T19:37:08.406Z,14.38
2022-09-09T19:39:36.094Z,14.56
2022-09-09T19:42:06.029Z,14.65
2022-09-09T19:44:33.968Z,14.66
2022-09-09T19:47:03.098Z,14.60
2022-09-09T19:49:32.074Z,14.57
2022-09-09T19:51:59.953Z,14.60
2022-09-09T19:54:27.916Z,14.59
2022-09-09T19:56:55.755Z,14.47
2022-09-09T19:59:27.368Z,14.35
2022-09-09T20:01:56.751Z,14.32
2022-09-09T20:04:26.334Z,14.25
2022-09-09T20:06:54.208Z,14.14
2022-09-09T20:09:23.900Z,14.03
2022-09-09T20:11:51.690Z,13.91
2022-09-09T20:14:19.735Z,13.76
2022-09-09T20:16:50.478Z,13.63
2022-09-09T20:19:21.050Z,13.46
2022-09-09T20:21:50.436Z,13.34
2022-09-09T20:24:23.923Z,13.25
2022-09-09T20:26:52.356Z,13.18
2022-09-09T20:29:21.144Z,13.10
2022-09-09T20:31:49.690Z,13.03
2022-09-09T20:34:19.539Z,12.97
2022-09-09T20:36:48.423Z,12.89
2022-09-09T20:39:19.920Z,12.82
2022-09-09T20:41:47.999Z,12.75
2022-09-09T20:44:17.227Z,12.70
2022-09-09T20:46:51.884Z,12.63
2022-09-09T20:49:21.853Z,12.57
2022-09-09T20:51:50.732Z,12.52
2022-09-09T20:54:23.332Z,12.45
2022-09-09T20:56:53.145Z,12.43
2022-09-09T20:59:23.194Z,12.42
2022-09-09T21:01:51.503Z,12.41
2022-09-09T21:04:20.840Z,12.37
2022-09-09T21:06:50.234Z,12.38
2022-09-09T21:09:24.523Z,12.42
2022-09-09T21:11:53.452Z,12.48
2022-09-09T21:14:21.219Z,12.62
2022-09-09T21:16:49.264Z,12.71
2022-09-09T21:19:17.001Z,12.84
2022-09-09T21:21:45.375Z,13.00
2022-09-09T21:24:13.116Z,13.16
2022-09-09T21:26:42.189Z,13.30
2022-09-09T21:29:10.122Z,13.48
2022-09-09T21:31:38.483Z,13.62
2022-09-09T21:34:06.258Z,13.77
2022-09-09T21:36:33.988Z,13.90
2022-09-09T21:39:01.805Z,14.01
2022-09-09T21:41:29.528Z,14.09
2022-09-09T21:43:58.624Z,14.07
2022-09-09T21:46:28.175Z,14.05
2022-09-09T21:48:57.135Z,14.00
2022-09-09T21:51:25.956Z,13.84
2022-09-09T21:53:56.695Z,13.46
2022-09-09T21:56:24.896Z,13.21
2022-09-09T21:58:56.465Z,12.99
2022-09-09T22:01:26.999Z,12.82
2022-09-09T22:03:55.240Z,12.72
2022-09-09T22:06:23.108Z,12.64
2022-09-09T22:08:50.896Z,12.56
2022-09-09T22:11:22.727Z,12.46
2022-09-09T22:13:53.152Z,12.41
2022-09-09T22:16:23.518Z,12.39
2022-09-09T22:18:54.560Z,12.34
2022-09-09T22:21:23.083Z,12.29
2022-09-09T22:23:54.463Z,12.28
2022-09-09T22:26:22.573Z,12.24
2022-09-09T22:28:51.562Z,12.20
2022-09-09T22:31:20.717Z,12.11
2022-09-09T22:33:48.564Z,12.10
2022-09-09T22:36:17.735Z,12.05
2022-09-09T22:38:45.474Z,11.98
2022-09-09T22:41:13.903Z,11.97
2022-09-09T22:43:43.367Z,11.92
2022-09-09T22:46:11.673Z,11.85
2022-09-09T22:48:40.457Z,11.82
2022-09-09T22:51:10.800Z,11.76
2022-09-09T22:53:40.773Z,11.73
2022-09-09T22:56:13.355Z,11.69
2022-09-09T22:58:42.702Z,11.63
2022-09-09T23:06:22.010Z,11.55
2022-09-09T23:08:51.852Z,11.51
2022-09-09T23:11:23.534Z,11.44
2022-09-09T23:13:53.100Z,11.43
2022-09-09T23:16:24.063Z,11.36
2022-09-09T23:18:52.514Z,11.31
2022-09-09T23:21:22.430Z,11.30
2022-09-09T23:23:53.608Z,11.23
2022-09-09T23:26:22.807Z,11.21
2022-09-09T23:28:52.407Z,11.18
2022-09-09T23:31:22.547Z,11.13
2022-09-09T23:33:50.702Z,11.11
2022-09-09T23:36:20.006Z,11.06
2022-09-09T23:38:54.478Z,11.03
2022-09-09T23:41:22.288Z,10.97
2022-09-09T23:43:50.484Z,10.98
2022-09-09T23:46:20.899Z,10.95
2022-09-09T23:48:51.536Z,10.93
2022-09-09T23:51:23.052Z,10.92
2022-09-09T23:53:56.819Z,10.88
2022-09-09T23:56:26.632Z,10.86
2022-09-09T23:59:04.126Z,10.79
